sensor_id;sensor_type;location;lat;lon;timestamp;temperature;humidity
3842;DHT22;1936;47.074;15.336;2023-06-22T00:00:56;20.60;92.20
3842;DHT22;1936;47.074;15.336;2023-06-22T00:03:00;20.50;92.00
3842;DHT22;1936;47.074;15.336;2023-06-22T00:05:06;20.20;92.70
3842;DHT22;1936;47.074;15.336;2023-06-22T00:07:09;20.20;92.90
3842;DHT22;1936;47.074;15.336;2023-06-22T00:09:13;20.40;92.70
3842;DHT22;1936;47.074;15.336;2023-06-22T00:11:16;20.40;93.00
3842;DHT22;1936;47.074;15.336;2023-06-22T00:13:20;20.40;92.40
3842;DHT22;1936;47.074;15.336;2023-06-22T00:15:23;20.40;92.30
3842;DHT22;1936;47.074;15.336;2023-06-22T00:17:26;20.30;92.40
3842;DHT22;1936;47.074;15.336;2023-06-22T00:19:30;20.30;92.40
3842;DHT22;1936;47.074;15.336;2023-06-22T00:21:36;20.30;92.30
3842;DHT22;1936;47.074;15.336;2023-06-22T00:23:40;20.30;92.30
3842;DHT22;1936;47.074;15.336;2023-06-22T00:25:44;20.30;92.50
3842;DHT22;1936;47.074;15.336;2023-06-22T00:27:47;20.40;92.50
3842;DHT22;1936;47.074;15.336;2023-06-22T00:29:50;20.20;93.00
3842;DHT22;1936;47.074;15.336;2023-06-22T00:31:54;20.10;94.10
3842;DHT22;1936;47.074;15.336;2023-06-22T00:33:57;20.10;93.70
3842;DHT22;1936;47.074;15.336;2023-06-22T00:36:00;20.00;93.90
3842;DHT22;1936;47.074;15.336;2023-06-22T00:38:06;20.10;93.90
3842;DHT22;1936;47.074;15.336;2023-06-22T00:40:10;20.00;93.90
3842;DHT22;1936;47.074;15.336;2023-06-22T00:42:15;20.00;94.30
3842;DHT22;1936;47.074;15.336;2023-06-22T00:44:18;20.00;94.40
3842;DHT22;1936;47.074;15.336;2023-06-22T00:46:22;19.90;94.50
3842;DHT22;1936;47.074;15.336;2023-06-22T00:48:26;20.00;94.60
3842;DHT22;1936;47.074;15.336;2023-06-22T00:50:32;20.00;94.10
3842;DHT22;1936;47.074;15.336;2023-06-22T00:52:36;20.10;93.80
3842;DHT22;1936;47.074;15.336;2023-06-22T00:54:46;20.00;93.80
3842;DHT22;1936;47.074;15.336;2023-06-22T00:56:51;20.10;93.80
3842;DHT22;1936;47.074;15.336;2023-06-22T00:58:58;20.10;93.30
3842;DHT22;1936;47.074;15.336;2023-06-22T01:01:01;20.00;94.00
3842;DHT22;1936;47.074;15.336;2023-06-22T01:03:05;20.10;93.90
3842;DHT22;1936;47.074;15.336;2023-06-22T01:05:12;20.10;93.40
3842;DHT22;1936;47.074;15.336;2023-06-22T01:07:21;20.20;92.90
3842;DHT22;1936;47.074;15.336;2023-06-22T01:09:31;20.30;92.60
3842;DHT22;1936;47.074;15.336;2023-06-22T01:11:41;20.20;92.60
3842;DHT22;1936;47.074;15.336;2023-06-22T01:13:52;20.10;92.90
3842;DHT22;1936;47.074;15.336;2023-06-22T01:16:02;20.00;93.40
3842;DHT22;1936;47.074;15.336;2023-06-22T01:18:08;20.00;93.30
3842;DHT22;1936;47.074;15.336;2023-06-22T01:20:15;19.90;93.80
3842;DHT22;1936;47.074;15.336;2023-06-22T01:22:21;20.00;93.90
3842;DHT22;1936;47.074;15.336;2023-06-22T01:24:30;20.00;93.90
3842;DHT22;1936;47.074;15.336;2023-06-22T01:26:43;19.90;94.20
3842;DHT22;1936;47.074;15.336;2023-06-22T01:28:49;19.90;94.00
3842;DHT22;1936;47.074;15.336;2023-06-22T01:30:54;20.00;93.70
3842;DHT22;1936;47.074;15.336;2023-06-22T01:33:11;20.10;93.60
3842;DHT22;1936;47.074;15.336;2023-06-22T01:35:15;20.20;93.00
3842;DHT22;1936;47.074;15.336;2023-06-22T01:37:19;20.30;92.80
3842;DHT22;1936;47.074;15.336;2023-06-22T01:39:23;20.20;92.90
3842;DHT22;1936;47.074;15.336;2023-06-22T01:41:28;20.20;93.30
3842;DHT22;1936;47.074;15.336;2023-06-22T01:43:33;20.30;93.00
3842;DHT22;1936;47.074;15.336;2023-06-22T01:45:38;20.30;93.10
3842;DHT22;1936;47.074;15.336;2023-06-22T01:47:42;20.20;93.00
3842;DHT22;1936;47.074;15.336;2023-06-22T01:49:46;20.20;93.00
3842;DHT22;1936;47.074;15.336;2023-06-22T01:51:49;20.30;93.00
3842;DHT22;1936;47.074;15.336;2023-06-22T01:53:53;20.30;92.90
3842;DHT22;1936;47.074;15.336;2023-06-22T01:55:57;20.40;92.40
3842;DHT22;1936;47.074;15.336;2023-06-22T01:58:00;20.40;92.30
3842;DHT22;1936;47.074;15.336;2023-06-22T02:00:05;20.40;92.30
3842;DHT22;1936;47.074;15.336;2023-06-22T02:02:12;20.40;92.50
3842;DHT22;1936;47.074;15.336;2023-06-22T02:04:21;20.30;92.90
3842;DHT22;1936;47.074;15.336;2023-06-22T02:06:30;20.30;92.40
3842;DHT22;1936;47.074;15.336;2023-06-22T02:08:40;20.30;92.30
3842;DHT22;1936;47.074;15.336;2023-06-22T02:10:45;20.20;92.60
3842;DHT22;1936;47.074;15.336;2023-06-22T02:12:53;20.20;92.60
3842;DHT22;1936;47.074;15.336;2023-06-22T02:14:57;20.10;92.90
3842;DHT22;1936;47.074;15.336;2023-06-22T02:17:03;20.20;93.00
3842;DHT22;1936;47.074;15.336;2023-06-22T02:19:10;20.20;92.80
3842;DHT22;1936;47.074;15.336;2023-06-22T02:21:14;20.20;93.30
3842;DHT22;1936;47.074;15.336;2023-06-22T02:23:18;20.20;93.00
3842;DHT22;1936;47.074;15.336;2023-06-22T02:25:21;20.20;93.00
3842;DHT22;1936;47.074;15.336;2023-06-22T02:27:25;20.10;92.60
3842;DHT22;1936;47.074;15.336;2023-06-22T02:29:29;20.20;92.90
3842;DHT22;1936;47.074;15.336;2023-06-22T02:31:32;20.20;93.00
3842;DHT22;1936;47.074;15.336;2023-06-22T02:33:35;20.20;92.70
3842;DHT22;1936;47.074;15.336;2023-06-22T02:35:40;20.30;92.60
3842;DHT22;1936;47.074;15.336;2023-06-22T02:37:47;20.20;92.80
3842;DHT22;1936;47.074;15.336;2023-06-22T02:39:53;20.30;92.50
3842;DHT22;1936;47.074;15.336;2023-06-22T02:41:57;20.20;92.70
3842;DHT22;1936;47.074;15.336;2023-06-22T02:44:00;20.20;92.50
3842;DHT22;1936;47.074;15.336;2023-06-22T02:46:03;20.20;92.50
3842;DHT22;1936;47.074;15.336;2023-06-22T02:48:07;20.20;92.90
3842;DHT22;1936;47.074;15.336;2023-06-22T02:50:10;20.20;92.60
3842;DHT22;1936;47.074;15.336;2023-06-22T02:52:15;20.10;92.90
3842;DHT22;1936;47.074;15.336;2023-06-22T02:54:18;20.00;93.00
3842;DHT22;1936;47.074;15.336;2023-06-22T02:56:22;20.00;93.00
3842;DHT22;1936;47.074;15.336;2023-06-22T02:58:27;20.10;92.90
3842;DHT22;1936;47.074;15.336;2023-06-22T03:00:30;20.10;92.90
3842;DHT22;1936;47.074;15.336;2023-06-22T03:02:33;20.10;92.80
3842;DHT22;1936;47.074;15.336;2023-06-22T03:04:37;20.10;92.70
3842;DHT22;1936;47.074;15.336;2023-06-22T03:06:40;20.10;92.90
3842;DHT22;1936;47.074;15.336;2023-06-22T03:08:45;20.10;92.80
3842;DHT22;1936;47.074;15.336;2023-06-22T03:10:48;20.20;92.30
3842;DHT22;1936;47.074;15.336;2023-06-22T03:12:52;20.20;92.20
3842;DHT22;1936;47.074;15.336;2023-06-22T03:14:55;20.20;92.40
3842;DHT22;1936;47.074;15.336;2023-06-22T03:17:00;20.20;92.40
3842;DHT22;1936;47.074;15.336;2023-06-22T03:19:05;20.30;92.20
3842;DHT22;1936;47.074;15.336;2023-06-22T03:21:08;20.20;92.50
3842;DHT22;1936;47.074;15.336;2023-06-22T03:23:11;20.20;92.20
3842;DHT22;1936;47.074;15.336;2023-06-22T03:25:19;20.20;92.40
3842;DHT22;1936;47.074;15.336;2023-06-22T03:27:23;20.10;92.80
3842;DHT22;1936;47.074;15.336;2023-06-22T03:29:27;19.90;93.10
3842;DHT22;1936;47.074;15.336;2023-06-22T03:31:32;20.00;93.10
3842;DHT22;1936;47.074;15.336;2023-06-22T03:33:36;20.10;92.70
3842;DHT22;1936;47.074;15.336;2023-06-22T03:35:39;20.20;92.70
3842;DHT22;1936;47.074;15.336;2023-06-22T03:37:42;20.20;92.50
3842;DHT22;1936;47.074;15.336;2023-06-22T03:39:45;20.20;92.30
3842;DHT22;1936;47.074;15.336;2023-06-22T03:41:50;20.10;92.70
3842;DHT22;1936;47.074;15.336;2023-06-22T03:43:53;20.30;92.40
3842;DHT22;1936;47.074;15.336;2023-06-22T03:45:57;20.30;92.20
3842;DHT22;1936;47.074;15.336;2023-06-22T03:48:00;20.30;92.40
3842;DHT22;1936;47.074;15.336;2023-06-22T03:50:05;20.30;92.30
3842;DHT22;1936;47.074;15.336;2023-06-22T03:52:09;20.40;92.20
3842;DHT22;1936;47.074;15.336;2023-06-22T03:54:12;20.50;92.10
3842;DHT22;1936;47.074;15.336;2023-06-22T03:56:16;20.40;92.00
3842;DHT22;1936;47.074;15.336;2023-06-22T03:58:23;20.60;91.50
3842;DHT22;1936;47.074;15.336;2023-06-22T04:00:27;20.70;91.80
3842;DHT22;1936;47.074;15.336;2023-06-22T04:02:31;20.80;91.70
3842;DHT22;1936;47.074;15.336;2023-06-22T04:04:34;20.70;91.60
3842;DHT22;1936;47.074;15.336;2023-06-22T04:06:38;20.80;91.60
3842;DHT22;1936;47.074;15.336;2023-06-22T04:08:41;20.70;91.60
3842;DHT22;1936;47.074;15.336;2023-06-22T04:10:45;20.80;91.40
3842;DHT22;1936;47.074;15.336;2023-06-22T04:12:48;20.80;91.30
3842;DHT22;1936;47.074;15.336;2023-06-22T04:14:53;20.80;91.20
3842;DHT22;1936;47.074;15.336;2023-06-22T04:16:58;21.00;90.50
3842;DHT22;1936;47.074;15.336;2023-06-22T04:19:01;21.00;91.00
3842;DHT22;1936;47.074;15.336;2023-06-22T04:21:05;21.00;90.80
3842;DHT22;1936;47.074;15.336;2023-06-22T04:23:08;21.00;90.80
3842;DHT22;1936;47.074;15.336;2023-06-22T04:25:12;21.10;90.80
3842;DHT22;1936;47.074;15.336;2023-06-22T04:27:15;21.10;90.60
3842;DHT22;1936;47.074;15.336;2023-06-22T04:29:18;21.20;90.80
3842;DHT22;1936;47.074;15.336;2023-06-22T04:31:23;21.30;90.00
3842;DHT22;1936;47.074;15.336;2023-06-22T04:33:29;21.30;90.20
3842;DHT22;1936;47.074;15.336;2023-06-22T04:35:32;21.20;90.50
3842;DHT22;1936;47.074;15.336;2023-06-22T04:37:36;21.40;89.80
3842;DHT22;1936;47.074;15.336;2023-06-22T04:39:39;21.40;90.00
3842;DHT22;1936;47.074;15.336;2023-06-22T04:41:43;21.50;90.00
3842;DHT22;1936;47.074;15.336;2023-06-22T04:43:46;21.50;89.70
3842;DHT22;1936;47.074;15.336;2023-06-22T04:45:56;21.60;88.50
3842;DHT22;1936;47.074;15.336;2023-06-22T04:48:07;21.70;88.50
3842;DHT22;1936;47.074;15.336;2023-06-22T04:50:11;21.90;87.80
3842;DHT22;1936;47.074;15.336;2023-06-22T04:52:15;21.90;87.30
3842;DHT22;1936;47.074;15.336;2023-06-22T04:54:19;22.00;87.30
3842;DHT22;1936;47.074;15.336;2023-06-22T04:56:23;22.00;87.60
3842;DHT22;1936;47.074;15.336;2023-06-22T04:58:30;22.10;87.60
3842;DHT22;1936;47.074;15.336;2023-06-22T05:00:34;22.10;87.20
3842;DHT22;1936;47.074;15.336;2023-06-22T05:02:39;22.20;86.90
3842;DHT22;1936;47.074;15.336;2023-06-22T05:04:44;22.20;86.50
3842;DHT22;1936;47.074;15.336;2023-06-22T05:06:54;22.20;86.30
3842;DHT22;1936;47.074;15.336;2023-06-22T05:08:57;22.30;85.60
3842;DHT22;1936;47.074;15.336;2023-06-22T05:11:01;22.30;85.90
3842;DHT22;1936;47.074;15.336;2023-06-22T05:13:06;22.30;85.80
3842;DHT22;1936;47.074;15.336;2023-06-22T05:15:10;22.30;87.00
3842;DHT22;1936;47.074;15.336;2023-06-22T05:17:13;22.40;86.60
3842;DHT22;1936;47.074;15.336;2023-06-22T05:19:21;22.40;86.00
3842;DHT22;1936;47.074;15.336;2023-06-22T05:21:26;22.50;85.70
3842;DHT22;1936;47.074;15.336;2023-06-22T05:23:30;22.50;85.30
3842;DHT22;1936;47.074;15.336;2023-06-22T05:25:34;22.80;84.80
3842;DHT22;1936;47.074;15.336;2023-06-22T05:27:37;22.90;84.20
3842;DHT22;1936;47.074;15.336;2023-06-22T05:29:41;23.10;83.60
3842;DHT22;1936;47.074;15.336;2023-06-22T05:31:45;23.20;83.90
3842;DHT22;1936;47.074;15.336;2023-06-22T05:33:52;23.30;81.70
3842;DHT22;1936;47.074;15.336;2023-06-22T05:35:55;23.30;82.50
3842;DHT22;1936;47.074;15.336;2023-06-22T05:38:00;23.10;83.00
3842;DHT22;1936;47.074;15.336;2023-06-22T05:40:04;23.30;83.10
3842;DHT22;1936;47.074;15.336;2023-06-22T05:42:09;23.40;83.40
3842;DHT22;1936;47.074;15.336;2023-06-22T05:44:12;23.50;81.30
3842;DHT22;1936;47.074;15.336;2023-06-22T05:46:16;23.30;81.50
3842;DHT22;1936;47.074;15.336;2023-06-22T05:48:20;23.60;82.50
3842;DHT22;1936;47.074;15.336;2023-06-22T05:50:23;23.60;81.00
3842;DHT22;1936;47.074;15.336;2023-06-22T05:52:27;23.60;79.80
3842;DHT22;1936;47.074;15.336;2023-06-22T05:54:31;23.80;81.70
3842;DHT22;1936;47.074;15.336;2023-06-22T05:56:35;23.70;79.10
3842;DHT22;1936;47.074;15.336;2023-06-22T05:58:38;24.00;80.50
3842;DHT22;1936;47.074;15.336;2023-06-22T06:00:42;24.00;77.90
3842;DHT22;1936;47.074;15.336;2023-06-22T06:02:46;24.00;78.60
3842;DHT22;1936;47.074;15.336;2023-06-22T06:04:51;24.10;78.80
3842;DHT22;1936;47.074;15.336;2023-06-22T06:06:54;24.40;80.30
3842;DHT22;1936;47.074;15.336;2023-06-22T06:08:58;24.50;78.50
3842;DHT22;1936;47.074;15.336;2023-06-22T06:11:04;24.70;78.40
3842;DHT22;1936;47.074;15.336;2023-06-22T06:13:08;24.90;75.60
3842;DHT22;1936;47.074;15.336;2023-06-22T06:15:11;24.90;75.40
3842;DHT22;1936;47.074;15.336;2023-06-22T06:17:14;25.00;77.40
3842;DHT22;1936;47.074;15.336;2023-06-22T06:19:18;25.10;75.20
3842;DHT22;1936;47.074;15.336;2023-06-22T06:21:21;25.30;77.00
3842;DHT22;1936;47.074;15.336;2023-06-22T06:23:25;25.80;76.40
3842;DHT22;1936;47.074;15.336;2023-06-22T06:25:29;26.10;75.10
3842;DHT22;1936;47.074;15.336;2023-06-22T06:27:33;26.60;75.20
3842;DHT22;1936;47.074;15.336;2023-06-22T06:29:37;27.10;73.60
3842;DHT22;1936;47.074;15.336;2023-06-22T06:31:40;27.10;71.40
3842;DHT22;1936;47.074;15.336;2023-06-22T06:33:43;27.40;70.20
3842;DHT22;1936;47.074;15.336;2023-06-22T06:35:47;27.60;70.60
3842;DHT22;1936;47.074;15.336;2023-06-22T06:37:50;28.00;70.00
3842;DHT22;1936;47.074;15.336;2023-06-22T06:39:53;28.00;68.30
3842;DHT22;1936;47.074;15.336;2023-06-22T06:41:57;28.40;69.80
3842;DHT22;1936;47.074;15.336;2023-06-22T06:44:01;28.50;65.20
3842;DHT22;1936;47.074;15.336;2023-06-22T06:46:05;28.60;65.50
3842;DHT22;1936;47.074;15.336;2023-06-22T06:48:08;28.30;63.30
3842;DHT22;1936;47.074;15.336;2023-06-22T06:50:12;28.20;67.30
3842;DHT22;1936;47.074;15.336;2023-06-22T06:52:15;28.30;68.20
3842;DHT22;1936;47.074;15.336;2023-06-22T06:54:19;28.70;68.90
3842;DHT22;1936;47.074;15.336;2023-06-22T06:56:22;29.10;65.70
3842;DHT22;1936;47.074;15.336;2023-06-22T06:58:26;29.40;66.00
3842;DHT22;1936;47.074;15.336;2023-06-22T07:00:32;29.60;63.90
3842;DHT22;1936;47.074;15.336;2023-06-22T07:02:35;29.80;64.50
3842;DHT22;1936;47.074;15.336;2023-06-22T07:04:39;30.00;63.70
3842;DHT22;1936;47.074;15.336;2023-06-22T07:06:43;30.30;64.00
3842;DHT22;1936;47.074;15.336;2023-06-22T07:08:46;30.40;63.30
3842;DHT22;1936;47.074;15.336;2023-06-22T07:10:49;30.40;59.60
3842;DHT22;1936;47.074;15.336;2023-06-22T07:12:53;29.90;58.40
3842;DHT22;1936;47.074;15.336;2023-06-22T07:15:02;29.60;60.00
3842;DHT22;1936;47.074;15.336;2023-06-22T07:17:07;29.90;61.20
3842;DHT22;1936;47.074;15.336;2023-06-22T07:19:11;30.30;57.90
3842;DHT22;1936;47.074;15.336;2023-06-22T07:21:15;30.50;55.70
3842;DHT22;1936;47.074;15.336;2023-06-22T07:23:18;30.50;57.00
3842;DHT22;1936;47.074;15.336;2023-06-22T07:25:21;31.20;57.50
3842;DHT22;1936;47.074;15.336;2023-06-22T07:27:24;31.70;56.30
3842;DHT22;1936;47.074;15.336;2023-06-22T07:29:28;31.90;58.10
3842;DHT22;1936;47.074;15.336;2023-06-22T07:31:31;32.20;56.50
3842;DHT22;1936;47.074;15.336;2023-06-22T07:33:36;32.30;57.30
3842;DHT22;1936;47.074;15.336;2023-06-22T07:35:39;32.60;58.00
3842;DHT22;1936;47.074;15.336;2023-06-22T07:37:42;32.90;55.00
3842;DHT22;1936;47.074;15.336;2023-06-22T07:39:46;32.70;55.20
3842;DHT22;1936;47.074;15.336;2023-06-22T07:41:49;32.40;55.40
3842;DHT22;1936;47.074;15.336;2023-06-22T07:43:53;32.20;54.10
3842;DHT22;1936;47.074;15.336;2023-06-22T07:45:56;32.00;56.20
3842;DHT22;1936;47.074;15.336;2023-06-22T07:48:00;32.40;53.60
3842;DHT22;1936;47.074;15.336;2023-06-22T07:50:06;32.10;52.80
3842;DHT22;1936;47.074;15.336;2023-06-22T07:52:09;32.20;53.30
3842;DHT22;1936;47.074;15.336;2023-06-22T07:54:13;32.50;52.40
3842;DHT22;1936;47.074;15.336;2023-06-22T07:56:18;32.90;51.60
3842;DHT22;1936;47.074;15.336;2023-06-22T07:58:22;33.60;51.00
3842;DHT22;1936;47.074;15.336;2023-06-22T08:00:25;33.10;50.60
3842;DHT22;1936;47.074;15.336;2023-06-22T08:02:29;33.40;51.10
3842;DHT22;1936;47.074;15.336;2023-06-22T08:04:33;34.20;50.20
3842;DHT22;1936;47.074;15.336;2023-06-22T08:06:40;34.80;45.40
3842;DHT22;1936;47.074;15.336;2023-06-22T08:08:43;35.80;46.70
3842;DHT22;1936;47.074;15.336;2023-06-22T08:10:49;36.40;44.90
3842;DHT22;1936;47.074;15.336;2023-06-22T08:12:53;36.90;44.80
3842;DHT22;1936;47.074;15.336;2023-06-22T08:14:57;37.00;42.10
3842;DHT22;1936;47.074;15.336;2023-06-22T08:17:00;37.40;41.20
3842;DHT22;1936;47.074;15.336;2023-06-22T08:19:03;37.30;42.00
3842;DHT22;1936;47.074;15.336;2023-06-22T08:21:07;37.50;42.00
3842;DHT22;1936;47.074;15.336;2023-06-22T08:23:12;38.10;41.70
3842;DHT22;1936;47.074;15.336;2023-06-22T08:25:15;38.20;41.00
3842;DHT22;1936;47.074;15.336;2023-06-22T08:27:20;38.10;39.40
3842;DHT22;1936;47.074;15.336;2023-06-22T08:29:25;37.50;41.40
3842;DHT22;1936;47.074;15.336;2023-06-22T08:31:29;38.20;42.00
3842;DHT22;1936;47.074;15.336;2023-06-22T08:33:32;39.40;41.50
3842;DHT22;1936;47.074;15.336;2023-06-22T08:35:36;38.90;40.70
3842;DHT22;1936;47.074;15.336;2023-06-22T08:37:39;39.20;40.10
3842;DHT22;1936;47.074;15.336;2023-06-22T08:39:44;39.00;37.20
3842;DHT22;1936;47.074;15.336;2023-06-22T08:41:48;39.40;39.10
3842;DHT22;1936;47.074;15.336;2023-06-22T08:43:52;39.10;40.20
3842;DHT22;1936;47.074;15.336;2023-06-22T08:45:55;39.50;38.10
3842;DHT22;1936;47.074;15.336;2023-06-22T08:47:59;39.30;39.70
3842;DHT22;1936;47.074;15.336;2023-06-22T08:50:02;38.90;40.90
3842;DHT22;1936;47.074;15.336;2023-06-22T08:52:06;39.10;38.00
3842;DHT22;1936;47.074;15.336;2023-06-22T08:54:10;38.90;39.50
3842;DHT22;1936;47.074;15.336;2023-06-22T08:56:15;38.50;38.40
3842;DHT22;1936;47.074;15.336;2023-06-22T08:58:18;38.60;37.70
3842;DHT22;1936;47.074;15.336;2023-06-22T09:00:23;38.80;38.00
3842;DHT22;1936;47.074;15.336;2023-06-22T09:02:27;38.80;37.20
3842;DHT22;1936;47.074;15.336;2023-06-22T09:04:33;38.60;38.00
3842;DHT22;1936;47.074;15.336;2023-06-22T09:06:37;38.70;39.10
3842;DHT22;1936;47.074;15.336;2023-06-22T09:08:46;39.10;41.90
3842;DHT22;1936;47.074;15.336;2023-06-22T09:10:50;39.50;37.00
3842;DHT22;1936;47.074;15.336;2023-06-22T09:12:56;39.20;38.40
3842;DHT22;1936;47.074;15.336;2023-06-22T09:15:00;39.10;36.50
3842;DHT22;1936;47.074;15.336;2023-06-22T09:17:05;38.40;42.10
3842;DHT22;1936;47.074;15.336;2023-06-22T09:19:08;38.40;40.80
3842;DHT22;1936;47.074;15.336;2023-06-22T09:21:12;38.60;38.10
3842;DHT22;1936;47.074;15.336;2023-06-22T09:23:16;38.60;40.40
3842;DHT22;1936;47.074;15.336;2023-06-22T09:25:19;38.70;38.30
3842;DHT22;1936;47.074;15.336;2023-06-22T09:27:23;37.70;40.00
3842;DHT22;1936;47.074;15.336;2023-06-22T09:29:28;38.10;39.90
3842;DHT22;1936;47.074;15.336;2023-06-22T09:31:35;38.50;39.90
3842;DHT22;1936;47.074;15.336;2023-06-22T09:33:40;38.90;38.10
3842;DHT22;1936;47.074;15.336;2023-06-22T09:35:44;39.10;38.50
3842;DHT22;1936;47.074;15.336;2023-06-22T09:37:47;39.70;39.70
3842;DHT22;1936;47.074;15.336;2023-06-22T09:39:51;39.90;40.90
3842;DHT22;1936;47.074;15.336;2023-06-22T09:41:54;40.20;35.10
3842;DHT22;1936;47.074;15.336;2023-06-22T09:43:58;40.30;36.40
3842;DHT22;1936;47.074;15.336;2023-06-22T09:46:02;40.20;34.90
3842;DHT22;1936;47.074;15.336;2023-06-22T09:48:06;40.70;35.30
3842;DHT22;1936;47.074;15.336;2023-06-22T09:50:10;40.30;33.80
3842;DHT22;1936;47.074;15.336;2023-06-22T09:52:13;40.40;38.00
3842;DHT22;1936;47.074;15.336;2023-06-22T09:54:16;40.10;35.00
3842;DHT22;1936;47.074;15.336;2023-06-22T09:56:20;40.30;38.00
3842;DHT22;1936;47.074;15.336;2023-06-22T09:58:23;39.80;37.20
3842;DHT22;1936;47.074;15.336;2023-06-22T10:00:27;39.90;36.60
3842;DHT22;1936;47.074;15.336;2023-06-22T10:02:32;40.30;37.30
3842;DHT22;1936;47.074;15.336;2023-06-22T10:04:35;40.10;35.70
3842;DHT22;1936;47.074;15.336;2023-06-22T10:06:39;39.50;37.20
3842;DHT22;1936;47.074;15.336;2023-06-22T10:08:42;40.00;36.50
3842;DHT22;1936;47.074;15.336;2023-06-22T10:10:46;40.20;37.40
3842;DHT22;1936;47.074;15.336;2023-06-22T10:12:55;40.50;36.20
3842;DHT22;1936;47.074;15.336;2023-06-22T10:15:00;40.60;36.20
3842;DHT22;1936;47.074;15.336;2023-06-22T10:17:04;40.70;39.50
3842;DHT22;1936;47.074;15.336;2023-06-22T10:19:10;40.20;38.50
3842;DHT22;1936;47.074;15.336;2023-06-22T10:21:13;40.20;38.30
3842;DHT22;1936;47.074;15.336;2023-06-22T10:23:17;40.30;36.50
3842;DHT22;1936;47.074;15.336;2023-06-22T10:25:21;38.90;38.60
3842;DHT22;1936;47.074;15.336;2023-06-22T10:27:25;39.00;40.90
3842;DHT22;1936;47.074;15.336;2023-06-22T10:29:28;39.50;40.50
3842;DHT22;1936;47.074;15.336;2023-06-22T10:31:31;39.60;36.80
3842;DHT22;1936;47.074;15.336;2023-06-22T10:33:35;40.00;38.20
3842;DHT22;1936;47.074;15.336;2023-06-22T10:35:40;40.30;37.40
3842;DHT22;1936;47.074;15.336;2023-06-22T10:37:44;39.80;36.10
3842;DHT22;1936;47.074;15.336;2023-06-22T10:39:47;40.10;39.60
3842;DHT22;1936;47.074;15.336;2023-06-22T10:41:51;39.90;37.10
3842;DHT22;1936;47.074;15.336;2023-06-22T10:43:55;39.60;37.70
3842;DHT22;1936;47.074;15.336;2023-06-22T10:45:58;39.70;36.40
3842;DHT22;1936;47.074;15.336;2023-06-22T10:48:05;38.20;37.10
3842;DHT22;1936;47.074;15.336;2023-06-22T10:50:08;38.50;40.70
3842;DHT22;1936;47.074;15.336;2023-06-22T10:52:13;37.60;44.80
3842;DHT22;1936;47.074;15.336;2023-06-22T10:54:16;38.50;39.90
3842;DHT22;1936;47.074;15.336;2023-06-22T10:56:21;38.50;40.70
3842;DHT22;1936;47.074;15.336;2023-06-22T10:58:24;39.00;43.90
3842;DHT22;1936;47.074;15.336;2023-06-22T11:00:28;39.00;39.90
3842;DHT22;1936;47.074;15.336;2023-06-22T11:02:31;38.80;42.10
3842;DHT22;1936;47.074;15.336;2023-06-22T11:04:35;38.10;41.00
3842;DHT22;1936;47.074;15.336;2023-06-22T11:06:38;38.30;41.60
3842;DHT22;1936;47.074;15.336;2023-06-22T11:08:47;38.00;38.60
3842;DHT22;1936;47.074;15.336;2023-06-22T11:11:07;38.20;41.60
3842;DHT22;1936;47.074;15.336;2023-06-22T11:13:11;38.00;43.20
3842;DHT22;1936;47.074;15.336;2023-06-22T11:15:14;38.00;42.10
3842;DHT22;1936;47.074;15.336;2023-06-22T11:17:17;38.30;42.90
3842;DHT22;1936;47.074;15.336;2023-06-22T11:19:21;38.60;40.50
3842;DHT22;1936;47.074;15.336;2023-06-22T11:21:25;38.20;41.10
3842;DHT22;1936;47.074;15.336;2023-06-22T11:23:28;38.20;41.20
3842;DHT22;1936;47.074;15.336;2023-06-22T11:25:33;38.10;40.90
3842;DHT22;1936;47.074;15.336;2023-06-22T11:27:37;37.70;41.40
3842;DHT22;1936;47.074;15.336;2023-06-22T11:29:41;37.80;44.70
3842;DHT22;1936;47.074;15.336;2023-06-22T11:31:44;37.60;45.70
3842;DHT22;1936;47.074;15.336;2023-06-22T11:33:48;37.40;48.70
3842;DHT22;1936;47.074;15.336;2023-06-22T11:35:51;37.30;43.70
3842;DHT22;1936;47.074;15.336;2023-06-22T11:37:54;37.20;43.40
3842;DHT22;1936;47.074;15.336;2023-06-22T11:40:00;37.70;45.10
3842;DHT22;1936;47.074;15.336;2023-06-22T11:42:10;38.20;45.60
3842;DHT22;1936;47.074;15.336;2023-06-22T11:44:14;38.40;40.50
3842;DHT22;1936;47.074;15.336;2023-06-22T11:46:17;38.50;41.60
3842;DHT22;1936;47.074;15.336;2023-06-22T11:48:21;38.40;41.40
3842;DHT22;1936;47.074;15.336;2023-06-22T11:50:24;38.10;43.80
3842;DHT22;1936;47.074;15.336;2023-06-22T11:52:27;37.70;42.00
3842;DHT22;1936;47.074;15.336;2023-06-22T11:54:30;37.40;42.70
3842;DHT22;1936;47.074;15.336;2023-06-22T11:56:34;37.10;43.10
3842;DHT22;1936;47.074;15.336;2023-06-22T11:58:38;37.30;43.90
3842;DHT22;1936;47.074;15.336;2023-06-22T12:00:42;37.00;43.10
3842;DHT22;1936;47.074;15.336;2023-06-22T12:02:52;37.20;41.80
3842;DHT22;1936;47.074;15.336;2023-06-22T12:04:57;37.10;45.40
3842;DHT22;1936;47.074;15.336;2023-06-22T12:07:01;36.90;42.30
3842;DHT22;1936;47.074;15.336;2023-06-22T12:09:04;36.50;41.60
3842;DHT22;1936;47.074;15.336;2023-06-22T12:11:08;36.60;48.40
3842;DHT22;1936;47.074;15.336;2023-06-22T12:13:11;36.50;47.30
3842;DHT22;1936;47.074;15.336;2023-06-22T12:15:16;36.60;45.60
3842;DHT22;1936;47.074;15.336;2023-06-22T12:17:20;36.60;45.40
3842;DHT22;1936;47.074;15.336;2023-06-22T12:19:24;36.30;47.20
3842;DHT22;1936;47.074;15.336;2023-06-22T12:21:28;36.20;48.80
3842;DHT22;1936;47.074;15.336;2023-06-22T12:23:31;36.20;45.00
3842;DHT22;1936;47.074;15.336;2023-06-22T12:25:34;36.40;48.60
3842;DHT22;1936;47.074;15.336;2023-06-22T12:27:38;35.80;46.00
3842;DHT22;1936;47.074;15.336;2023-06-22T12:29:42;35.50;44.60
3842;DHT22;1936;47.074;15.336;2023-06-22T12:31:46;35.10;47.10
3842;DHT22;1936;47.074;15.336;2023-06-22T12:33:50;35.40;50.20
3842;DHT22;1936;47.074;15.336;2023-06-22T12:35:53;35.60;50.30
3842;DHT22;1936;47.074;15.336;2023-06-22T12:37:57;35.80;48.70
3842;DHT22;1936;47.074;15.336;2023-06-22T12:40:00;35.90;47.90
3842;DHT22;1936;47.074;15.336;2023-06-22T12:42:06;35.70;49.50
3842;DHT22;1936;47.074;15.336;2023-06-22T12:44:10;35.60;46.20
3842;DHT22;1936;47.074;15.336;2023-06-22T12:46:14;35.60;48.50
3842;DHT22;1936;47.074;15.336;2023-06-22T12:48:19;35.40;47.00
3842;DHT22;1936;47.074;15.336;2023-06-22T12:50:22;35.60;49.00
3842;DHT22;1936;47.074;15.336;2023-06-22T12:52:26;35.60;49.00
3842;DHT22;1936;47.074;15.336;2023-06-22T12:54:30;36.00;50.70
3842;DHT22;1936;47.074;15.336;2023-06-22T12:56:44;36.00;50.80
3842;DHT22;1936;47.074;15.336;2023-06-22T12:58:47;36.10;47.20
3842;DHT22;1936;47.074;15.336;2023-06-22T13:00:50;36.30;46.70
3842;DHT22;1936;47.074;15.336;2023-06-22T13:02:54;36.00;47.70
3842;DHT22;1936;47.074;15.336;2023-06-22T13:05:00;36.00;45.90
3842;DHT22;1936;47.074;15.336;2023-06-22T13:07:03;35.80;44.90
3842;DHT22;1936;47.074;15.336;2023-06-22T13:09:21;35.80;48.70
3842;DHT22;1936;47.074;15.336;2023-06-22T13:11:25;35.60;47.30
3842;DHT22;1936;47.074;15.336;2023-06-22T13:13:28;35.70;48.90
3842;DHT22;1936;47.074;15.336;2023-06-22T13:15:31;35.60;49.80
3842;DHT22;1936;47.074;15.336;2023-06-22T13:17:35;35.30;46.70